sensor_id;sensor_type;location;lat;lon;timestamp;temperature;humidity
27707;DHT22;36332;51.384;0.040;2023-04-15T00:01:59;8.30;99.90
27707;DHT22;36332;51.384;0.040;2023-04-15T00:04:27;8.40;99.90
27707;DHT22;36332;51.384;0.040;2023-04-15T00:06:55;8.30;99.90
27707;DHT22;36332;51.384;0.040;2023-04-15T00:09:22;8.30;99.90
27707;DHT22;36332;51.384;0.040;2023-04-15T00:11:50;8.30;99.90
27707;DHT22;36332;51.384;0.040;2023-04-15T00:14:17;8.20;99.90
27707;DHT22;36332;51.384;0.040;2023-04-15T00:16:45;8.30;99.90
27707;DHT22;36332;51.384;0.040;2023-04-15T00:19:13;8.30;99.90
27707;DHT22;36332;51.384;0.040;2023-04-15T00:21:41;8.30;99.90
27707;DHT22;36332;51.384;0.040;2023-04-15T00:24:08;8.20;99.90
27707;DHT22;36332;51.384;0.040;2023-04-15T00:26:36;8.20;99.90
27707;DHT22;36332;51.384;0.040;2023-04-15T00:29:04;8.20;99.90
27707;DHT22;36332;51.384;0.040;2023-04-15T00:31:31;9.20;99.90
27707;DHT22;36332;51.384;0.040;2023-04-15T00:33:59;8.20;99.90
27707;DHT22;36332;51.384;0.040;2023-04-15T00:36:28;8.20;99.90
27707;DHT22;36332;51.384;0.040;2023-04-15T00:38:56;8.20;99.90
27707;DHT22;36332;51.384;0.040;2023-04-15T00:41:24;8.30;99.90
27707;DHT22;36332;51.384;0.040;2023-04-15T00:43:51;8.30;99.90
27707;DHT22;36332;51.384;0.040;2023-04-15T00:46:19;8.30;99.90
27707;DHT22;36332;51.384;0.040;2023-04-15T00:48:47;8.30;99.90
27707;DHT22;36332;51.384;0.040;2023-04-15T00:51:15;8.30;99.90
27707;DHT22;36332;51.384;0.040;2023-04-15T00:53:43;8.30;99.90
27707;DHT22;36332;51.384;0.040;2023-04-15T00:56:12;8.30;99.90
27707;DHT22;36332;51.384;0.040;2023-04-15T00:58:40;8.30;99.90
27707;DHT22;36332;51.384;0.040;2023-04-15T01:01:08;8.30;99.90
27707;DHT22;36332;51.384;0.040;2023-04-15T01:03:36;8.30;99.90
27707;DHT22;36332;51.384;0.040;2023-04-15T01:06:04;8.30;99.90
27707;DHT22;36332;51.384;0.040;2023-04-15T01:08:32;8.30;99.90
27707;DHT22;36332;51.384;0.040;2023-04-15T01:11:00;8.30;99.90
27707;DHT22;36332;51.384;0.040;2023-04-15T01:13:30;8.30;99.90
27707;DHT22;36332;51.384;0.040;2023-04-15T01:16:00;8.30;99.90
27707;DHT22;36332;51.384;0.040;2023-04-15T01:18:29;8.30;99.90
27707;DHT22;36332;51.384;0.040;2023-04-15T01:21:00;8.30;99.90
27707;DHT22;36332;51.384;0.040;2023-04-15T01:23:31;8.30;99.90
27707;DHT22;36332;51.384;0.040;2023-04-15T01:25:59;8.30;99.90
27707;DHT22;36332;51.384;0.040;2023-04-15T01:28:26;8.30;99.90
27707;DHT22;36332;51.384;0.040;2023-04-15T01:31:08;8.30;99.90
27707;DHT22;36332;51.384;0.040;2023-04-15T01:33:38;8.30;99.90
27707;DHT22;36332;51.384;0.040;2023-04-15T01:36:24;8.30;99.90
27707;DHT22;36332;51.384;0.040;2023-04-15T01:38:53;8.30;99.90
27707;DHT22;36332;51.384;0.040;2023-04-15T01:41:27;8.30;99.90
27707;DHT22;36332;51.384;0.040;2023-04-15T01:43:56;8.30;99.90
27707;DHT22;36332;51.384;0.040;2023-04-15T01:46:25;8.30;99.90
27707;DHT22;36332;51.384;0.040;2023-04-15T01:48:54;8.30;99.90
27707;DHT22;36332;51.384;0.040;2023-04-15T01:51:23;8.30;99.90
27707;DHT22;36332;51.384;0.040;2023-04-15T01:53:52;8.30;99.90
27707;DHT22;36332;51.384;0.040;2023-04-15T01:56:21;8.20;99.90
27707;DHT22;36332;51.384;0.040;2023-04-15T01:58:52;8.20;99.90
27707;DHT22;36332;51.384;0.040;2023-04-15T02:01:21;8.20;99.90
27707;DHT22;36332;51.384;0.040;2023-04-15T02:03:50;8.20;99.90
27707;DHT22;36332;51.384;0.040;2023-04-15T02:06:18;8.20;99.90
27707;DHT22;36332;51.384;0.040;2023-04-15T02:08:48;8.20;99.90
27707;DHT22;36332;51.384;0.040;2023-04-15T02:11:17;8.20;99.90
27707;DHT22;36332;51.384;0.040;2023-04-15T02:13:47;8.20;99.90
27707;DHT22;36332;51.384;0.040;2023-04-15T02:16:19;8.20;99.90
27707;DHT22;36332;51.384;0.040;2023-04-15T02:18:48;8.20;99.90
27707;DHT22;36332;51.384;0.040;2023-04-15T02:21:16;8.20;99.90
27707;DHT22;36332;51.384;0.040;2023-04-15T02:23:46;8.10;99.90
27707;DHT22;36332;51.384;0.040;2023-04-15T02:26:15;8.10;99.90
27707;DHT22;36332;51.384;0.040;2023-04-15T02:28:45;8.10;99.90
27707;DHT22;36332;51.384;0.040;2023-04-15T02:31:15;8.10;99.90
27707;DHT22;36332;51.384;0.040;2023-04-15T02:33:45;7.50;99.90
27707;DHT22;36332;51.384;0.040;2023-04-15T02:36:14;8.00;99.90
27707;DHT22;36332;51.384;0.040;2023-04-15T02:38:43;8.00;99.90
27707;DHT22;36332;51.384;0.040;2023-04-15T02:41:13;7.90;99.90
27707;DHT22;36332;51.384;0.040;2023-04-15T02:43:43;7.90;99.90
27707;DHT22;36332;51.384;0.040;2023-04-15T02:46:13;7.90;99.90
27707;DHT22;36332;51.384;0.040;2023-04-15T02:48:42;7.90;99.90
27707;DHT22;36332;51.384;0.040;2023-04-15T02:51:15;7.90;99.90
27707;DHT22;36332;51.384;0.040;2023-04-15T02:53:45;7.90;99.90
27707;DHT22;36332;51.384;0.040;2023-04-15T02:56:14;7.80;99.90
27707;DHT22;36332;51.384;0.040;2023-04-15T02:58:44;7.80;99.90
27707;DHT22;36332;51.384;0.040;2023-04-15T03:01:13;7.80;99.90
27707;DHT22;36332;51.384;0.040;2023-04-15T03:03:42;7.80;99.90
27707;DHT22;36332;51.384;0.040;2023-04-15T03:06:11;7.70;99.90
27707;DHT22;36332;51.384;0.040;2023-04-15T03:08:40;7.70;99.90
27707;DHT22;36332;51.384;0.040;2023-04-15T03:11:09;7.70;99.90
27707;DHT22;36332;51.384;0.040;2023-04-15T03:13:38;7.60;99.90
27707;DHT22;36332;51.384;0.040;2023-04-15T03:16:16;7.60;99.90
27707;DHT22;36332;51.384;0.040;2023-04-15T03:18:45;7.60;99.90
27707;DHT22;36332;51.384;0.040;2023-04-15T03:21:14;7.60;99.90
27707;DHT22;36332;51.384;0.040;2023-04-15T03:23:43;7.60;99.90
27707;DHT22;36332;51.384;0.040;2023-04-15T03:26:30;7.60;99.90
27707;DHT22;36332;51.384;0.040;2023-04-15T03:29:07;7.60;99.90
27707;DHT22;36332;51.384;0.040;2023-04-15T03:31:35;7.60;99.90
27707;DHT22;36332;51.384;0.040;2023-04-15T03:34:04;7.60;99.90
27707;DHT22;36332;51.384;0.040;2023-04-15T03:36:34;7.60;99.90
27707;DHT22;36332;51.384;0.040;2023-04-15T03:39:03;7.60;99.90
27707;DHT22;36332;51.384;0.040;2023-04-15T03:41:32;7.60;99.90
27707;DHT22;36332;51.384;0.040;2023-04-15T03:44:00;7.70;99.90
27707;DHT22;36332;51.384;0.040;2023-04-15T03:46:29;7.60;99.90
27707;DHT22;36332;51.384;0.040;2023-04-15T03:48:58;7.60;99.90
27707;DHT22;36332;51.384;0.040;2023-04-15T03:51:28;7.70;99.90
27707;DHT22;36332;51.384;0.040;2023-04-15T03:53:56;7.70;99.90
27707;DHT22;36332;51.384;0.040;2023-04-15T03:56:26;7.70;99.90
27707;DHT22;36332;51.384;0.040;2023-04-15T03:58:55;7.70;99.90
27707;DHT22;36332;51.384;0.040;2023-04-15T04:01:24;7.70;99.90
27707;DHT22;36332;51.384;0.040;2023-04-15T04:03:52;7.70;99.90
27707;DHT22;36332;51.384;0.040;2023-04-15T04:06:21;7.70;99.90
27707;DHT22;36332;51.384;0.040;2023-04-15T04:08:50;7.70;99.90
27707;DHT22;36332;51.384;0.040;2023-04-15T04:11:19;7.70;99.90
27707;DHT22;36332;51.384;0.040;2023-04-15T04:13:48;7.70;99.90
27707;DHT22;36332;51.384;0.040;2023-04-15T04:16:17;7.70;99.90
27707;DHT22;36332;51.384;0.040;2023-04-15T04:18:45;7.70;99.90
27707;DHT22;36332;51.384;0.040;2023-04-15T04:21:14;7.60;99.90
27707;DHT22;36332;51.384;0.040;2023-04-15T04:23:43;7.60;99.90
27707;DHT22;36332;51.384;0.040;2023-04-15T04:26:13;7.60;99.90
27707;DHT22;36332;51.384;0.040;2023-04-15T04:28:42;7.60;99.90
27707;DHT22;36332;51.384;0.040;2023-04-15T04:31:10;7.60;99.90
27707;DHT22;36332;51.384;0.040;2023-04-15T04:33:39;7.60;99.90
27707;DHT22;36332;51.384;0.040;2023-04-15T04:36:08;7.60;99.90
27707;DHT22;36332;51.384;0.040;2023-04-15T04:38:37;7.60;99.90
27707;DHT22;36332;51.384;0.040;2023-04-15T04:41:05;7.60;99.90
27707;DHT22;36332;51.384;0.040;2023-04-15T04:43:34;7.60;99.90
27707;DHT22;36332;51.384;0.040;2023-04-15T04:46:03;7.60;99.90
27707;DHT22;36332;51.384;0.040;2023-04-15T04:48:32;7.60;99.90
27707;DHT22;36332;51.384;0.040;2023-04-15T04:51:01;7.60;99.90
27707;DHT22;36332;51.384;0.040;2023-04-15T04:53:30;7.70;99.90
27707;DHT22;36332;51.384;0.040;2023-04-15T04:55:59;7.70;99.90
27707;DHT22;36332;51.384;0.040;2023-04-15T04:58:28;7.70;99.90
27707;DHT22;36332;51.384;0.040;2023-04-15T05:00:57;7.70;99.90
27707;DHT22;36332;51.384;0.040;2023-04-15T05:03:26;7.70;99.90
27707;DHT22;36332;51.384;0.040;2023-04-15T05:05:55;7.70;99.90
27707;DHT22;36332;51.384;0.040;2023-04-15T05:08:24;7.70;99.90
27707;DHT22;36332;51.384;0.040;2023-04-15T05:10:53;7.70;99.90
27707;DHT22;36332;51.384;0.040;2023-04-15T05:13:21;7.70;99.90
27707;DHT22;36332;51.384;0.040;2023-04-15T05:15:50;7.80;99.90
27707;DHT22;36332;51.384;0.040;2023-04-15T05:18:19;7.80;99.90
27707;DHT22;36332;51.384;0.040;2023-04-15T05:20:48;7.70;99.90
27707;DHT22;36332;51.384;0.040;2023-04-15T05:23:18;7.80;99.90
27707;DHT22;36332;51.384;0.040;2023-04-15T05:25:47;7.80;99.90
27707;DHT22;36332;51.384;0.040;2023-04-15T05:28:15;7.80;99.90
27707;DHT22;36332;51.384;0.040;2023-04-15T05:30:44;7.80;99.90
27707;DHT22;36332;51.384;0.040;2023-04-15T05:33:13;7.80;99.90
27707;DHT22;36332;51.384;0.040;2023-04-15T05:35:42;7.80;99.90
27707;DHT22;36332;51.384;0.040;2023-04-15T05:38:11;7.80;99.90
27707;DHT22;36332;51.384;0.040;2023-04-15T05:40:39;7.80;99.90
27707;DHT22;36332;51.384;0.040;2023-04-15T05:43:08;7.80;99.90
27707;DHT22;36332;51.384;0.040;2023-04-15T05:45:37;7.80;99.90
27707;DHT22;36332;51.384;0.040;2023-04-15T05:48:06;7.90;99.90
27707;DHT22;36332;51.384;0.040;2023-04-15T05:50:35;7.90;99.90
27707;DHT22;36332;51.384;0.040;2023-04-15T05:53:03;7.90;99.90
27707;DHT22;36332;51.384;0.040;2023-04-15T05:55:32;7.90;99.90
27707;DHT22;36332;51.384;0.040;2023-04-15T05:58:01;7.90;99.90
27707;DHT22;36332;51.384;0.040;2023-04-15T06:00:31;8.00;99.90
27707;DHT22;36332;51.384;0.040;2023-04-15T06:03:00;8.00;99.90
27707;DHT22;36332;51.384;0.040;2023-04-15T06:05:29;8.00;99.90
27707;DHT22;36332;51.384;0.040;2023-04-15T06:07:57;8.00;99.90
27707;DHT22;36332;51.384;0.040;2023-04-15T06:10:26;8.10;99.90
27707;DHT22;36332;51.384;0.040;2023-04-15T06:12:55;8.10;99.90
27707;DHT22;36332;51.384;0.040;2023-04-15T06:15:24;8.10;99.90
27707;DHT22;36332;51.384;0.040;2023-04-15T06:17:53;8.20;99.90
27707;DHT22;36332;51.384;0.040;2023-04-15T06:20:22;8.20;99.90
27707;DHT22;36332;51.384;0.040;2023-04-15T06:22:51;8.20;99.90
27707;DHT22;36332;51.384;0.040;2023-04-15T06:25:20;8.20;99.90
27707;DHT22;36332;51.384;0.040;2023-04-15T06:27:49;8.20;99.90
27707;DHT22;36332;51.384;0.040;2023-04-15T06:30:18;8.20;99.90
27707;DHT22;36332;51.384;0.040;2023-04-15T06:32:47;8.30;99.90
27707;DHT22;36332;51.384;0.040;2023-04-15T06:35:16;8.30;99.90
27707;DHT22;36332;51.384;0.040;2023-04-15T06:37:45;8.30;99.90
27707;DHT22;36332;51.384;0.040;2023-04-15T06:40:15;8.30;99.90
27707;DHT22;36332;51.384;0.040;2023-04-15T06:42:44;8.30;99.90
27707;DHT22;36332;51.384;0.040;2023-04-15T06:45:13;8.30;99.90
27707;DHT22;36332;51.384;0.040;2023-04-15T06:47:42;8.30;99.90
27707;DHT22;36332;51.384;0.040;2023-04-15T06:50:11;8.30;99.90
27707;DHT22;36332;51.384;0.040;2023-04-15T06:52:39;8.40;99.90
27707;DHT22;36332;51.384;0.040;2023-04-15T06:55:09;8.40;99.90
27707;DHT22;36332;51.384;0.040;2023-04-15T06:57:38;8.40;99.90
27707;DHT22;36332;51.384;0.040;2023-04-15T07:00:07;8.50;99.90
27707;DHT22;36332;51.384;0.040;2023-04-15T07:02:38;8.50;99.90
27707;DHT22;36332;51.384;0.040;2023-04-15T07:05:07;8.50;99.90
27707;DHT22;36332;51.384;0.040;2023-04-15T07:07:36;8.50;99.90
27707;DHT22;36332;51.384;0.040;2023-04-15T07:10:06;8.60;99.90
27707;DHT22;36332;51.384;0.040;2023-04-15T07:12:35;8.60;99.90
27707;DHT22;36332;51.384;0.040;2023-04-15T07:15:04;8.60;99.90
27707;DHT22;36332;51.384;0.040;2023-04-15T07:17:34;8.60;99.90
27707;DHT22;36332;51.384;0.040;2023-04-15T07:20:03;8.70;99.90
27707;DHT22;36332;51.384;0.040;2023-04-15T07:22:32;8.60;99.90
27707;DHT22;36332;51.384;0.040;2023-04-15T07:25:01;8.70;99.90
27707;DHT22;36332;51.384;0.040;2023-04-15T07:27:30;8.70;99.90
27707;DHT22;36332;51.384;0.040;2023-04-15T07:29:59;8.70;99.90
27707;DHT22;36332;51.384;0.040;2023-04-15T07:32:27;8.70;99.90
27707;DHT22;36332;51.384;0.040;2023-04-15T07:34:56;8.70;99.90
27707;DHT22;36332;51.384;0.040;2023-04-15T07:37:25;8.70;99.90
27707;DHT22;36332;51.384;0.040;2023-04-15T07:39:54;8.70;99.90
27707;DHT22;36332;51.384;0.040;2023-04-15T07:42:23;9.70;99.90
27707;DHT22;36332;51.384;0.040;2023-04-15T07:44:52;8.70;99.90
27707;DHT22;36332;51.384;0.040;2023-04-15T07:47:20;8.80;99.90
27707;DHT22;36332;51.384;0.040;2023-04-15T07:49:49;8.80;99.90
27707;DHT22;36332;51.384;0.040;2023-04-15T07:52:19;8.80;99.90
27707;DHT22;36332;51.384;0.040;2023-04-15T07:54:48;8.80;99.90
27707;DHT22;36332;51.384;0.040;2023-04-15T07:57:16;8.80;99.90
27707;DHT22;36332;51.384;0.040;2023-04-15T07:59:46;8.80;99.90
27707;DHT22;36332;51.384;0.040;2023-04-15T08:02:15;8.90;99.90
27707;DHT22;36332;51.384;0.040;2023-04-15T08:04:44;8.90;99.90
27707;DHT22;36332;51.384;0.040;2023-04-15T08:07:13;8.90;99.90
27707;DHT22;36332;51.384;0.040;2023-04-15T08:09:42;8.90;99.90
27707;DHT22;36332;51.384;0.040;2023-04-15T08:12:10;9.00;99.90
27707;DHT22;36332;51.384;0.040;2023-04-15T08:14:41;9.00;99.90
27707;DHT22;36332;51.384;0.040;2023-04-15T08:17:10;9.10;99.90
27707;DHT22;36332;51.384;0.040;2023-04-15T08:19:39;9.10;99.90
27707;DHT22;36332;51.384;0.040;2023-04-15T08:22:08;9.20;99.90
27707;DHT22;36332;51.384;0.040;2023-04-15T08:24:46;9.30;99.90
27707;DHT22;36332;51.384;0.040;2023-04-15T08:27:14;9.30;99.90
27707;DHT22;36332;51.384;0.040;2023-04-15T08:29:43;9.40;99.90
27707;DHT22;36332;51.384;0.040;2023-04-15T08:32:13;9.50;99.90
27707;DHT22;36332;51.384;0.040;2023-04-15T08:34:42;9.60;99.90
27707;DHT22;36332;51.384;0.040;2023-04-15T08:37:11;9.70;99.90
27707;DHT22;36332;51.384;0.040;2023-04-15T08:39:40;9.80;99.90
27707;DHT22;36332;51.384;0.040;2023-04-15T08:42:16;9.80;99.90
27707;DHT22;36332;51.384;0.040;2023-04-15T08:44:46;9.90;99.90
27707;DHT22;36332;51.384;0.040;2023-04-15T08:47:20;9.90;99.90
27707;DHT22;36332;51.384;0.040;2023-04-15T08:49:52;10.10;99.90
27707;DHT22;36332;51.384;0.040;2023-04-15T08:52:25;10.20;99.90
27707;DHT22;36332;51.384;0.040;2023-04-15T08:57:27;10.40;99.90
27707;DHT22;36332;51.384;0.040;2023-04-15T08:59:57;10.70;99.90
27707;DHT22;36332;51.384;0.040;2023-04-15T09:02:25;10.70;99.90
27707;DHT22;36332;51.384;0.040;2023-04-15T09:04:55;10.80;99.90
27707;DHT22;36332;51.384;0.040;2023-04-15T09:07:24;11.00;99.90
27707;DHT22;36332;51.384;0.040;2023-04-15T09:09:53;11.10;99.90
27707;DHT22;36332;51.384;0.040;2023-04-15T09:12:21;11.20;99.90
27707;DHT22;36332;51.384;0.040;2023-04-15T09:14:50;11.20;99.90
27707;DHT22;36332;51.384;0.040;2023-04-15T09:17:20;11.10;99.90
27707;DHT22;36332;51.384;0.040;2023-04-15T09:20:12;11.10;99.90
27707;DHT22;36332;51.384;0.040;2023-04-15T09:22:43;11.10;99.90
27707;DHT22;36332;51.384;0.040;2023-04-15T09:27:50;11.10;99.90
27707;DHT22;36332;51.384;0.040;2023-04-15T09:30:19;11.10;99.90
27707;DHT22;36332;51.384;0.040;2023-04-15T09:32:53;11.10;99.90
27707;DHT22;36332;51.384;0.040;2023-04-15T09:35:23;11.20;99.90
27707;DHT22;36332;51.384;0.040;2023-04-15T09:37:53;11.20;99.90
27707;DHT22;36332;51.384;0.040;2023-04-15T09:40:40;11.30;99.90
27707;DHT22;36332;51.384;0.040;2023-04-15T09:43:09;11.50;99.90
27707;DHT22;36332;51.384;0.040;2023-04-15T09:45:50;11.60;99.90
27707;DHT22;36332;51.384;0.040;2023-04-15T09:48:20;11.80;99.90
27707;DHT22;36332;51.384;0.040;2023-04-15T09:50:49;12.00;99.90
27707;DHT22;36332;51.384;0.040;2023-04-15T09:53:23;12.20;99.90
27707;DHT22;36332;51.384;0.040;2023-04-15T09:55:53;12.60;99.90
27707;DHT22;36332;51.384;0.040;2023-04-15T09:58:31;12.50;99.90
27707;DHT22;36332;51.384;0.040;2023-04-15T10:01:03;12.60;99.90
27707;DHT22;36332;51.384;0.040;2023-04-15T10:03:34;12.60;99.90
27707;DHT22;36332;51.384;0.040;2023-04-15T10:06:04;12.60;99.90
27707;DHT22;36332;51.384;0.040;2023-04-15T10:08:33;12.80;99.90
27707;DHT22;36332;51.384;0.040;2023-04-15T10:11:02;12.90;99.90
27707;DHT22;36332;51.384;0.040;2023-04-15T10:13:32;13.00;99.90
27707;DHT22;36332;51.384;0.040;2023-04-15T10:16:14;13.00;99.90
27707;DHT22;36332;51.384;0.040;2023-04-15T10:18:45;13.00;99.90
27707;DHT22;36332;51.384;0.040;2023-04-15T10:21:14;12.90;99.90
27707;DHT22;36332;51.384;0.040;2023-04-15T10:23:46;12.80;99.90
27707;DHT22;36332;51.384;0.040;2023-04-15T10:26:15;12.70;99.90
27707;DHT22;36332;51.384;0.040;2023-04-15T10:28:47;12.70;99.90
27707;DHT22;36332;51.384;0.040;2023-04-15T10:31:16;12.70;99.90
27707;DHT22;36332;51.384;0.040;2023-04-15T10:33:46;12.70;99.90
27707;DHT22;36332;51.384;0.040;2023-04-15T10:36:18;12.70;99.90
27707;DHT22;36332;51.384;0.040;2023-04-15T10:38:47;12.70;99.90
27707;DHT22;36332;51.384;0.040;2023-04-15T10:41:20;12.50;99.90
27707;DHT22;36332;51.384;0.040;2023-04-15T10:43:59;12.50;99.90
27707;DHT22;36332;51.384;0.040;2023-04-15T10:46:45;12.50;99.90
27707;DHT22;36332;51.384;0.040;2023-04-15T10:49:16;12.50;99.90
27707;DHT22;36332;51.384;0.040;2023-04-15T10:51:50;12.50;99.90
27707;DHT22;36332;51.384;0.040;2023-04-15T10:54:32;12.70;99.90
27707;DHT22;36332;51.384;0.040;2023-04-15T10:57:14;12.60;99.90
27707;DHT22;36332;51.384;0.040;2023-04-15T11:02:43;12.80;99.90
27707;DHT22;36332;51.384;0.040;2023-04-15T11:05:13;12.90;99.90
27707;DHT22;36332;51.384;0.040;2023-04-15T11:12:46;13.30;99.90
27707;DHT22;36332;51.384;0.040;2023-04-15T11:15:37;13.50;99.90
27707;DHT22;36332;51.384;0.040;2023-04-15T11:18:14;13.60;99.90
27707;DHT22;36332;51.384;0.040;2023-04-15T11:20:54;13.70;99.90
27707;DHT22;36332;51.384;0.040;2023-04-15T11:23:49;13.70;99.90
27707;DHT22;36332;51.384;0.040;2023-04-15T11:26:18;13.90;99.90
27707;DHT22;36332;51.384;0.040;2023-04-15T11:28:53;14.00;99.90
27707;DHT22;36332;51.384;0.040;2023-04-15T11:33:58;14.30;99.90
27707;DHT22;36332;51.384;0.040;2023-04-15T11:36:30;14.40;99.90
27707;DHT22;36332;51.384;0.040;2023-04-15T11:39:00;14.60;99.90
27707;DHT22;36332;51.384;0.040;2023-04-15T11:43:58;14.90;99.90
27707;DHT22;36332;51.384;0.040;2023-04-15T11:46:30;15.20;99.90
27707;DHT22;36332;51.384;0.040;2023-04-15T11:49:01;15.40;99.90
27707;DHT22;36332;51.384;0.040;2023-04-15T11:51:33;15.60;99.90
27707;DHT22;36332;51.384;0.040;2023-04-15T11:54:00;15.70;99.90
27707;DHT22;36332;51.384;0.040;2023-04-15T11:56:29;16.50;99.90
27707;DHT22;36332;51.384;0.040;2023-04-15T11:58:57;16.20;99.90
27707;DHT22;36332;51.384;0.040;2023-04-15T12:01:36;16.60;99.90
27707;DHT22;36332;51.384;0.040;2023-04-15T12:04:14;16.90;99.90
27707;DHT22;36332;51.384;0.040;2023-04-15T12:06:42;17.00;99.90
27707;DHT22;36332;51.384;0.040;2023-04-15T12:09:13;16.90;99.90
27707;DHT22;36332;51.384;0.040;2023-04-15T12:11:46;16.90;99.90
27707;DHT22;36332;51.384;0.040;2023-04-15T12:14:26;16.90;99.90
27707;DHT22;36332;51.384;0.040;2023-04-15T12:17:04;17.30;99.90
27707;DHT22;36332;51.384;0.040;2023-04-15T12:19:36;17.50;99.90
27707;DHT22;36332;51.384;0.040;2023-04-15T12:22:08;17.80;99.90
27707;DHT22;36332;51.384;0.040;2023-04-15T12:24:37;18.20;99.90
27707;DHT22;36332;51.384;0.040;2023-04-15T12:27:06;18.10;99.90
27707;DHT22;36332;51.384;0.040;2023-04-15T12:29:35;18.10;99.90
27707;DHT22;36332;51.384;0.040;2023-04-15T12:32:10;18.00;99.90
27707;DHT22;36332;51.384;0.040;2023-04-15T12:34:49;17.80;99.90
27707;DHT22;36332;51.384;0.040;2023-04-15T12:37:17;17.70;99.90
27707;DHT22;36332;51.384;0.040;2023-04-15T12:39:47;17.90;99.90
27707;DHT22;36332;51.384;0.040;2023-04-15T12:42:16;17.90;99.90
27707;DHT22;36332;51.384;0.040;2023-04-15T12:44:44;18.90;99.90
27707;DHT22;36332;51.384;0.040;2023-04-15T12:47:12;18.90;99.90
27707;DHT22;36332;51.384;0.040;2023-04-15T12:49:40;19.30;99.90
27707;DHT22;36332;51.384;0.040;2023-04-15T12:52:07;19.30;99.90
27707;DHT22;36332;51.384;0.040;2023-04-15T12:54:36;19.00;99.90
27707;DHT22;36332;51.384;0.040;2023-04-15T12:57:04;18.70;99.90
27707;DHT22;36332;51.384;0.040;2023-04-15T13:04:31;19.30;99.90
27707;DHT22;36332;51.384;0.040;2023-04-15T13:06:59;19.10;99.90
27707;DHT22;36332;51.384;0.040;2023-04-15T13:09:27;18.70;99.90
27707;DHT22;36332;51.384;0.040;2023-04-15T13:16:51;17.80;99.90
27707;DHT22;36332;51.384;0.040;2023-04-15T13:19:20;17.40;99.90
27707;DHT22;36332;51.384;0.040;2023-04-15T13:21:47;17.00;99.90
27707;DHT22;36332;51.384;0.040;2023-04-15T13:24:16;16.80;99.90
27707;DHT22;36332;51.384;0.040;2023-04-15T13:26:43;16.80;99.90
27707;DHT22;36332;51.384;0.040;2023-04-15T13:29:11;17.00;99.90
27707;DHT22;36332;51.384;0.040;2023-04-15T13:31:39;17.30;99.90
27707;DHT22;36332;51.384;0.040;2023-04-15T13:34:07;18.00;99.90
27707;DHT22;36332;51.384;0.040;2023-04-15T13:36:34;19.00;99.90
27707;DHT22;36332;51.384;0.040;2023-04-15T13:39:02;19.10;99.90
27707;DHT22;36332;51.384;0.040;2023-04-15T13:41:31;19.10;99.90
27707;DHT22;36332;51.384;0.040;2023-04-15T13:43:59;19.10;99.90
27707;DHT22;36332;51.384;0.040;2023-04-15T13:46:26;19.00;99.90
27707;DHT22;36332;51.384;0.040;2023-04-15T13:48:54;18.70;99.90
27707;DHT22;36332;51.384;0.040;2023-04-15T13:51:21;18.50;99.90
27707;DHT22;36332;51.384;0.040;2023-04-15T13:53:49;18.50;99.90
27707;DHT22;36332;51.384;0.040;2023-04-15T13:56:16;18.80;99.90
27707;DHT22;36332;51.384;0.040;2023-04-15T13:58:44;19.50;99.90
27707;DHT22;36332;51.384;0.040;2023-04-15T14:01:11;20.70;99.90
27707;DHT22;36332;51.384;0.040;2023-04-15T14:03:39;21.70;99.90
27707;DHT22;36332;51.384;0.040;2023-04-15T14:06:07;22.50;99.90
27707;DHT22;36332;51.384;0.040;2023-04-15T14:08:34;23.40;99.90
27707;DHT22;36332;51.384;0.040;2023-04-15T14:11:02;23.90;99.90
27707;DHT22;36332;51.384;0.040;2023-04-15T14:13:29;24.10;99.90
27707;DHT22;36332;51.384;0.040;2023-04-15T14:15:57;24.20;99.90
27707;DHT22;36332;51.384;0.040;2023-04-15T14:18:25;24.40;99.90
27707;DHT22;36332;51.384;0.040;2023-04-15T14:20:52;24.30;99.90
27707;DHT22;36332;51.384;0.040;2023-04-15T14:23:20;24.40;99.90
27707;DHT22;36332;51.384;0.040;2023-04-15T14:25:49;24.30;99.90
27707;DHT22;36332;51.384;0.040;2023-04-15T14:28:16;24.40;99.90
27707;DHT22;36332;51.384;0.040;2023-04-15T14:30:44;24.70;99.90
27707;DHT22;36332;51.384;0.040;2023-04-15T14:33:11;25.10;99.70
27707;DHT22;36332;51.384;0.040;2023-04-15T14:35:39;25.30;99.90
27707;DHT22;36332;51.384;0.040;2023-04-15T14:38:06;25.50;99.40
27707;DHT22;36332;51.384;0.040;2023-04-15T14:40:37;25.40;98.50
27707;DHT22;36332;51.384;0.040;2023-04-15T14:43:05;25.10;96.90
27707;DHT22;36332;51.384;0.040;2023-04-15T14:45:33;24.40;96.80
27707;DHT22;36332;51.384;0.040;2023-04-15T14:48:01;23.50;96.70
27707;DHT22;36332;51.384;0.040;2023-04-15T14:50:29;22.50;97.30
27707;DHT22;36332;51.384;0.040;2023-04-15T14:52:57;21.60;98.40
27707;DHT22;36332;51.384;0.040;2023-04-15T14:55:25;20.70;99.60
27707;DHT22;36332;51.384;0.040;2023-04-15T14:57:53;20.00;99.90
27707;DHT22;36332;51.384;0.040;2023-04-15T15:00:20;19.20;99.90
27707;DHT22;36332;51.384;0.040;2023-04-15T15:02:48;19.00;99.90
27707;DHT22;36332;51.384;0.040;2023-04-15T15:05:16;18.50;99.90
27707;DHT22;36332;51.384;0.040;2023-04-15T15:07:44;17.90;99.90
27707;DHT22;36332;51.384;0.040;2023-04-15T15:10:12;17.70;99.90
27707;DHT22;36332;51.384;0.040;2023-04-15T15:12:39;17.60;99.90
27707;DHT22;36332;51.384;0.040;2023-04-15T15:15:07;17.30;99.90
27707;DHT22;36332;51.384;0.040;2023-04-15T15:17:55;17.20;99.90
27707;DHT22;36332;51.384;0.040;2023-04-15T15:20:23;17.10;99.90
27707;DHT22;36332;51.384;0.040;2023-04-15T15:22:51;17.20;99.90
27707;DHT22;36332;51.384;0.040;2023-04-15T15:25:19;17.60;99.90
27707;DHT22;36332;51.384;0.040;2023-04-15T15:27:47;19.30;99.90
27707;DHT22;36332;51.384;0.040;2023-04-15T15:30:15;17.60;99.90
27707;DHT22;36332;51.384;0.040;2023-04-15T15:32:42;17.50;99.90
27707;DHT22;36332;51.384;0.040;2023-04-15T15:35:10;17.50;99.90
27707;DHT22;36332;51.384;0.040;2023-04-15T15:37:38;17.50;99.90
27707;DHT22;36332;51.384;0.040;2023-04-15T15:40:07;17.60;99.90
27707;DHT22;36332;51.384;0.040;2023-04-15T15:42:35;17.90;99.90
27707;DHT22;36332;51.384;0.040;2023-04-15T15:45:03;18.40;99.90
27707;DHT22;36332;51.384;0.040;2023-04-15T15:47:31;19.20;99.90
27707;DHT22;36332;51.384;0.040;2023-04-15T15:49:59;20.00;99.90
27707;DHT22;36332;51.384;0.040;2023-04-15T15:52:30;20.40;99.90
27707;DHT22;36332;51.384;0.040;2023-04-15T15:54:58;20.30;99.90
27707;DHT22;36332;51.384;0.040;2023-04-15T15:57:25;20.00;99.90
27707;DHT22;36332;51.384;0.040;2023-04-15T15:59:53;19.70;99.90
27707;DHT22;36332;51.384;0.040;2023-04-15T16:02:39;19.40;99.90
27707;DHT22;36332;51.384;0.040;2023-04-15T16:05:26;19.20;99.90
27707;DHT22;36332;51.384;0.040;2023-04-15T16:07:54;19.60;99.90
27707;DHT22;36332;51.384;0.040;2023-04-15T16:10:21;20.40;99.90
27707;DHT22;36332;51.384;0.040;2023-04-15T16:12:49;21.30;99.90
27707;DHT22;36332;51.384;0.040;2023-04-15T16:15:16;22.10;99.90
27707;DHT22;36332;51.384;0.040;2023-04-15T16:17:44;22.40;99.90
27707;DHT22;36332;51.384;0.040;2023-04-15T16:20:11;22.60;99.90
27707;DHT22;36332;51.384;0.040;2023-04-15T16:22:39;22.80;99.90
27707;DHT22;36332;51.384;0.040;2023-04-15T16:25:07;23.10;99.90